Time;durP1;ratioP1;P1;durP2;ratioP2;P2;SDS_P1;SDS_P2;PMS_P1;PMS_P2;Temp;Humidity;BMP_temperature;BMP_pressure;BME280_temperature;BME280_humidity;BME280_pressure;Samples;Min_cycle;Max_cycle;Signal;HPM_P1;HPM_P2
2024/04/19 00:01:21;;;;;;;24.03;22.50;;;;;;;;;;5521691;25;20490;-78
2024/04/19 00:03:50;;;;;;;24.53;22.53;;;;;;;;;;5522553;26;20459;-77
2024/04/19 00:06:16;;;;;;;22.60;21.00;;;;;;;;;;5521014;26;20564;-77
2024/04/19 00:08:47;;;;;;;23.90;22.50;;;;;;;;;;5508851;26;21057;-77
2024/04/19 00:11:13;;;;;;;23.33;21.70;;;;;;;;;;5522068;26;20442;-78
2024/04/19 00:13:42;;;;;;;22.63;21.23;;;;;;;;;;5522437;26;20449;-78
2024/04/19 00:16:08;;;;;;;22.40;21.00;;;;;;;;;;5522224;26;20465;-78
2024/04/19 00:18:37;;;;;;;22.60;21.20;;;;;;;;;;5521199;25;20442;-77
2024/04/19 00:21:06;;;;;;;21.60;20.40;;;;;;;;;;5484797;26;20464;-77
2024/04/19 00:23:32;;;;;;;23.07;21.50;;;;;;;;;;5486008;26;20489;-77
2024/04/19 00:26:04;;;;;;;22.87;21.00;;;;;;;;;;5514322;26;20477;-78
2024/04/19 00:28:31;;;;;;;22.50;21.20;;;;;;;;;;5521984;26;20530;-77
2024/04/19 00:31:00;;;;;;;22.00;20.70;;;;;;;;;;5525286;25;20556;-77
2024/04/19 00:33:26;;;;;;;21.67;20.43;;;;;;;;;;5525827;25;20433;-77
2024/04/19 00:35:55;;;;;;;24.10;21.97;;;;;;;;;;5525603;25;21067;-76
2024/04/19 00:38:21;;;;;;;22.23;20.73;;;;;;;;;;5524690;25;20512;-78
2024/04/19 00:40:49;;;;;;;21.47;20.27;;;;;;;;;;5525643;25;20421;-77
2024/04/19 00:43:18;;;;;;;21.40;20.20;;;;;;;;;;5525618;25;20520;-76
2024/04/19 00:45:47;;;;;;;22.70;21.13;;;;;;;;;;5526011;25;20440;-77
2024/04/19 00:48:16;;;;;;;22.90;21.33;;;;;;;;;;5525535;25;20457;-77
2024/04/19 00:50:46;;;;;;;21.80;20.33;;;;;;;;;;5520673;25;20544;-77
2024/04/19 00:53:12;;;;;;;21.03;19.83;;;;;;;;;;5525161;25;21028;-76
2024/04/19 00:55:42;;;;;;;23.03;21.23;;;;;;;;;;5525611;25;20867;-77
2024/04/19 00:58:09;;;;;;;22.73;21.23;;;;;;;;;;5524721;25;20457;-77
2024/04/19 01:00:41;;;;;;;22.23;20.93;;;;;;;;;;5525730;25;20465;-77
2024/04/19 01:03:07;;;;;;;22.47;21.07;;;;;;;;;;5524414;25;20503;-77
2024/04/19 01:05:35;;;;;;;22.40;21.00;;;;;;;;;;5524733;25;20471;-76
2024/04/19 01:08:02;;;;;;;22.57;21.37;;;;;;;;;;5495740;26;20463;-78
2024/04/19 01:10:30;;;;;;;22.23;21.03;;;;;;;;;;5488262;26;20455;-76
2024/04/19 01:12:57;;;;;;;23.07;21.67;;;;;;;;;;5488095;26;20479;-76
2024/04/19 01:15:26;;;;;;;21.30;20.10;;;;;;;;;;5494355;25;20530;-77
2024/04/19 01:17:54;;;;;;;21.50;20.30;;;;;;;;;;5524382;26;20524;-77
2024/04/19 01:20:23;;;;;;;23.60;21.90;;;;;;;;;;5524725;26;20438;-77
2024/04/19 01:22:49;;;;;;;22.17;20.77;;;;;;;;;;5525241;25;20605;-77
2024/04/19 01:25:20;;;;;;;25.20;23.50;;;;;;;;;;5524251;26;20535;-76
2024/04/19 01:27:49;;;;;;;24.70;22.90;;;;;;;;;;5487365;25;20461;-76
2024/04/19 01:30:20;;;;;;;22.30;21.07;;;;;;;;;;5487632;26;20848;-77
2024/04/19 01:32:47;;;;;;;22.90;21.50;;;;;;;;;;5487245;26;20449;-75
2024/04/19 01:35:16;;;;;;;23.73;22.23;;;;;;;;;;5488040;26;20436;-77
2024/04/19 01:37:42;;;;;;;26.37;24.17;;;;;;;;;;5487851;26;20984;-76
2024/04/19 01:40:11;;;;;;;24.00;22.50;;;;;;;;;;5486243;26;20439;-76
2024/04/19 01:42:37;;;;;;;25.07;23.07;;;;;;;;;;5487590;26;20470;-76
2024/04/19 01:45:08;;;;;;;25.70;23.80;;;;;;;;;;5488529;26;20463;-77
2024/04/19 01:47:35;;;;;;;25.43;23.63;;;;;;;;;;5495240;25;20840;-77
2024/04/19 01:50:04;;;;;;;24.97;23.47;;;;;;;;;;5523796;26;20525;-76
2024/04/19 01:52:30;;;;;;;25.07;23.47;;;;;;;;;;5524006;25;20468;-77
2024/04/19 01:54:58;;;;;;;27.53;25.63;;;;;;;;;;5524404;25;20458;-76
2024/04/19 01:57:25;;;;;;;29.73;26.93;;;;;;;;;;5524470;25;20518;-77
2024/04/19 01:59:53;;;;;;;26.63;25.03;;;;;;;;;;5523927;25;20468;-77
2024/04/19 02:02:22;;;;;;;26.73;24.83;;;;;;;;;;5524077;25;20477;-77
2024/04/19 02:04:51;;;;;;;23.13;21.77;;;;;;;;;;5523697;25;20586;-76
2024/04/19 02:07:17;;;;;;;29.33;26.50;;;;;;;;;;5523999;26;20461;-77
2024/04/19 02:09:46;;;;;;;29.90;27.70;;;;;;;;;;5523105;25;20477;-76
2024/04/19 02:12:15;;;;;;;31.83;29.43;;;;;;;;;;5486691;26;20548;-77
2024/04/19 02:14:41;;;;;;;34.00;31.37;;;;;;;;;;5489112;26;20431;-76
2024/04/19 02:17:09;;;;;;;28.43;26.57;;;;;;;;;;5523492;26;20550;-76
2024/04/19 02:19:39;;;;;;;35.57;32.97;;;;;;;;;;5522895;26;20506;-77
2024/04/19 02:22:08;;;;;;;34.70;32.03;;;;;;;;;;5512577;25;20490;-77
2024/04/19 02:24:34;;;;;;;38.97;35.83;;;;;;;;;;5511307;26;20445;-78
2024/04/19 02:27:06;;;;;;;35.87;33.17;;;;;;;;;;5523498;26;20551;-77
2024/04/19 02:32:19;;;;;;;33.93;31.30;;;;;;;;;;5525601;25;20555;-77
2024/04/19 02:34:50;;;;;;;43.38;39.83;;;;;;;;;;5524441;25;20464;-77
2024/04/19 02:37:19;;;;;;;41.67;38.53;;;;;;;;;;5523507;25;20236;-77
2024/04/19 02:39:47;;;;;;;40.27;37.17;;;;;;;;;;5517401;26;21076;-77
2024/04/19 02:42:16;;;;;;;41.17;38.17;;;;;;;;;;5522199;25;20465;-78
2024/04/19 02:44:45;;;;;;;36.60;34.23;;;;;;;;;;5511775;26;20464;-78
2024/04/19 02:47:14;;;;;;;38.73;35.70;;;;;;;;;;5520124;25;20470;-78
2024/04/19 02:49:42;;;;;;;34.90;32.38;;;;;;;;;;5512350;26;20473;-77
2024/04/19 02:52:13;;;;;;;37.43;35.13;;;;;;;;;;5517060;25;20236;-79
2024/04/19 02:54:42;;;;;;;38.00;35.63;;;;;;;;;;5524280;25;20791;-77
2024/04/19 02:57:11;;;;;;;45.97;42.15;;;;;;;;;;5521916;25;21084;-78
2024/04/19 02:59:39;;;;;;;44.00;41.20;;;;;;;;;;5523264;26;20364;-78
2024/04/19 03:02:08;;;;;;;40.23;38.13;;;;;;;;;;5523597;25;20500;-78
2024/04/19 03:04:38;;;;;;;43.23;40.70;;;;;;;;;;5523518;25;20514;-78
2024/04/19 03:07:06;;;;;;;41.25;38.80;;;;;;;;;;5523908;25;20458;-78
2024/04/19 03:09:38;;;;;;;44.50;42.03;;;;;;;;;;5523573;25;20229;-78
2024/04/19 03:12:06;;;;;;;42.60;40.13;;;;;;;;;;5524889;25;21468;-78
2024/04/19 03:14:35;;;;;;;56.88;52.83;;;;;;;;;;5524102;25;20481;-78
2024/04/19 03:17:04;;;;;;;44.05;41.55;;;;;;;;;;5523902;25;20260;-78
2024/04/19 03:19:32;;;;;;;54.15;51.03;;;;;;;;;;5523310;25;20228;-78
2024/04/19 03:22:01;;;;;;;50.33;47.43;;;;;;;;;;5506740;25;20248;-79
2024/04/19 03:24:30;;;;;;;45.42;42.92;;;;;;;;;;5495265;26;20466;-77
2024/04/19 03:27:01;;;;;;;46.47;43.00;;;;;;;;;;5523875;26;20727;-77
2024/04/19 03:29:30;;;;;;;43.70;41.00;;;;;;;;;;5523432;25;20556;-78
2024/04/19 03:31:58;;;;;;;53.78;50.92;;;;;;;;;;5523517;25;20239;-78
2024/04/19 03:34:27;;;;;;;48.20;45.65;;;;;;;;;;5523582;25;20267;-78
2024/04/19 03:36:56;;;;;;;47.45;44.75;;;;;;;;;;5524027;25;20270;-78
2024/04/19 03:39:25;;;;;;;51.43;48.33;;;;;;;;;;5522833;25;20244;-78
2024/04/19 03:41:53;;;;;;;54.40;51.42;;;;;;;;;;5523475;25;20525;-77
2024/04/19 03:47:10;;;;;;;48.13;45.33;;;;;;;;;;5526432;26;20545;-77
2024/04/19 03:49:38;;;;;;;46.22;43.70;;;;;;;;;;5522760;25;20650;-77
2024/04/19 03:52:08;;;;;;;45.53;43.13;;;;;;;;;;5523029;25;20942;-77
2024/04/19 03:54:37;;;;;;;54.90;52.07;;;;;;;;;;5522934;25;20437;-77
2024/04/19 03:57:06;;;;;;;51.70;48.93;;;;;;;;;;5523204;25;20453;-78
2024/04/19 03:59:35;;;;;;;56.03;52.80;;;;;;;;;;5522782;25;20457;-78
2024/04/19 04:02:05;;;;;;;52.03;49.25;;;;;;;;;;5523020;25;20520;-79
2024/04/19 04:04:33;;;;;;;57.10;53.30;;;;;;;;;;5524776;25;20267;-79
2024/04/19 04:07:02;;;;;;;52.20;49.20;;;;;;;;;;5526737;25;20492;-78
2024/04/19 04:09:31;;;;;;;57.17;53.92;;;;;;;;;;5526103;25;20220;-79
2024/04/19 04:12:00;;;;;;;54.67;51.78;;;;;;;;;;5526442;25;20270;-78
2024/04/19 04:14:28;;;;;;;56.70;53.60;;;;;;;;;;5526252;25;21111;-78
2024/04/19 04:17:00;;;;;;;57.13;54.03;;;;;;;;;;5526971;25;20434;-77
2024/04/19 04:19:29;;;;;;;58.92;55.35;;;;;;;;;;5526128;25;20500;-78
2024/04/19 04:21:57;;;;;;;60.38;57.17;;;;;;;;;;5526171;25;20233;-78
2024/04/19 04:24:27;;;;;;;67.90;64.23;;;;;;;;;;5525945;25;20230;-78
2024/04/19 04:26:56;;;;;;;64.87;61.60;;;;;;;;;;5525931;25;20461;-78
2024/04/19 04:29:27;;;;;;;65.47;62.08;;;;;;;;;;5525689;25;20452;-78
2024/04/19 04:31:55;;;;;;;65.87;62.27;;;;;;;;;;5525554;25;20285;-78
2024/04/19 04:34:27;;;;;;;67.43;63.43;;;;;;;;;;5525872;25;20476;-78
2024/04/19 04:36:55;;;;;;;59.93;56.73;;;;;;;;;;5525825;25;20560;-78
2024/04/19 04:39:24;;;;;;;71.17;67.27;;;;;;;;;;5525651;25;20486;-78
2024/04/19 04:41:53;;;;;;;65.13;61.73;;;;;;;;;;5517451;25;20450;-78
2024/04/19 04:44:22;;;;;;;70.85;66.95;;;;;;;;;;5490787;26;20434;-78
2024/04/19 04:46:50;;;;;;;65.57;62.07;;;;;;;;;;5525213;25;20228;-78
2024/04/19 04:49:19;;;;;;;69.30;65.30;;;;;;;;;;5524698;25;20461;-78
2024/04/19 04:51:50;;;;;;;63.13;59.43;;;;;;;;;;5525703;25;21200;-78
2024/04/19 04:54:19;;;;;;;65.70;61.90;;;;;;;;;;5525378;25;20465;-78
2024/04/19 04:56:47;;;;;;;68.53;64.13;;;;;;;;;;5525766;25;20558;-76
2024/04/19 04:59:16;;;;;;;69.90;65.55;;;;;;;;;;5524815;25;20224;-77
2024/04/19 05:01:46;;;;;;;65.00;61.30;;;;;;;;;;5525155;25;20289;-78
2024/04/19 05:04:14;;;;;;;68.20;64.10;;;;;;;;;;5525351;25;20944;-78
2024/04/19 05:06:43;;;;;;;77.30;73.37;;;;;;;;;;5525412;25;20221;-77
2024/04/19 05:09:14;;;;;;;66.37;62.77;;;;;;;;;;5525190;25;20456;-79
2024/04/19 05:11:43;;;;;;;71.07;66.93;;;;;;;;;;5525112;25;20538;-77
2024/04/19 05:14:11;;;;;;;75.60;71.00;;;;;;;;;;5525291;25;20692;-79
2024/04/19 05:16:40;;;;;;;79.40;74.57;;;;;;;;;;5525563;25;20279;-79
2024/04/19 05:19:09;;;;;;;71.00;67.30;;;;;;;;;;5524557;25;20471;-80
2024/04/19 05:21:38;;;;;;;77.70;73.00;;;;;;;;;;5526474;25;20510;-78
2024/04/19 05:24:07;;;;;;;78.10;72.40;;;;;;;;;;5524928;25;21268;-77
2024/04/19 05:26:39;;;;;;;74.28;69.85;;;;;;;;;;5524720;26;20516;-79
2024/04/19 05:29:07;;;;;;;78.90;74.60;;;;;;;;;;5523292;25;20238;-76
2024/04/19 05:31:36;;;;;;;77.20;72.77;;;;;;;;;;5517042;25;20450;-76
2024/04/19 05:34:04;;;;;;;84.95;79.95;;;;;;;;;;5512330;25;20497;-75
2024/04/19 05:36:33;;;;;;;77.63;73.30;;;;;;;;;;5506550;26;20238;-77
2024/04/19 05:39:03;;;;;;;75.33;71.30;;;;;;;;;;5498128;26;20445;-78
2024/04/19 05:41:32;;;;;;;81.43;76.65;;;;;;;;;;5524388;25;20511;-77
2024/04/19 05:44:03;;;;;;;84.97;80.27;;;;;;;;;;5515388;25;20252;-74
2024/04/19 05:46:32;;;;;;;76.93;72.03;;;;;;;;;;5516041;26;20473;-75
2024/04/19 05:49:00;;;;;;;72.90;69.00;;;;;;;;;;5511596;26;20720;-78
2024/04/19 05:51:29;;;;;;;82.17;77.07;;;;;;;;;;5523760;25;20241;-78
2024/04/19 05:53:58;;;;;;;75.73;70.83;;;;;;;;;;5524137;25;20430;-79
2024/04/19 05:56:27;;;;;;;71.80;68.07;;;;;;;;;;5524390;25;21073;-78
2024/04/19 05:58:57;;;;;;;80.13;75.53;;;;;;;;;;5487390;26;20481;-78
2024/04/19 06:01:28;;;;;;;86.10;81.50;;;;;;;;;;5486699;26;21035;-77
2024/04/19 06:03:57;;;;;;;82.88;78.40;;;;;;;;;;5486787;26;20256;-78
2024/04/19 06:06:27;;;;;;;80.90;76.57;;;;;;;;;;5487181;26;20234;-76
2024/04/19 06:08:56;;;;;;;75.28;70.90;;;;;;;;;;5519393;26;21012;-77
2024/04/19 06:11:24;;;;;;;83.22;78.72;;;;;;;;;;5515291;25;20610;-76
2024/04/19 06:13:53;;;;;;;79.97;75.77;;;;;;;;;;5522553;25;20244;-79
2024/04/19 06:16:22;;;;;;;88.07;83.18;;;;;;;;;;5524469;25;20453;-77
2024/04/19 06:18:53;;;;;;;85.10;80.30;;;;;;;;;;5523592;25;20251;-78
2024/04/19 06:21:22;;;;;;;87.18;82.25;;;;;;;;;;5524492;25;20484;-78
2024/04/19 06:23:50;;;;;;;85.22;80.60;;;;;;;;;;5523308;25;20561;-77
2024/04/19 06:26:19;;;;;;;91.05;84.80;;;;;;;;;;5521956;25;20237;-76
2024/04/19 06:28:49;;;;;;;95.97;90.27;;;;;;;;;;5520608;26;20232;-76
2024/04/19 06:31:18;;;;;;;86.97;82.27;;;;;;;;;;5492529;25;20466;-75
2024/04/19 06:33:47;;;;;;;98.97;92.97;;;;;;;;;;5505677;25;20486;-75
2024/04/19 06:36:19;;;;;;;93.53;87.97;;;;;;;;;;5518456;25;20472;-75
2024/04/19 06:38:48;;;;;;;94.20;89.07;;;;;;;;;;5505609;26;20333;-76
2024/04/19 06:41:17;;;;;;;98.63;92.83;;;;;;;;;;5520747;25;20579;-76
2024/04/19 06:43:46;;;;;;;90.97;85.93;;;;;;;;;;5508181;25;20871;-75
2024/04/19 06:46:16;;;;;;;94.60;89.35;;;;;;;;;;5509255;25;20463;-76
2024/04/19 06:48:45;;;;;;;89.72;85.00;;;;;;;;;;5517097;26;20235;-75
2024/04/19 06:51:13;;;;;;;89.03;84.10;;;;;;;;;;5486353;26;20748;-75
2024/04/19 06:53:45;;;;;;;94.03;88.72;;;;;;;;;;5515149;25;20492;-75
2024/04/19 06:56:14;;;;;;;93.15;87.85;;;;;;;;;;5485466;26;20249;-75
2024/04/19 06:58:47;;;;;;;91.07;85.72;;;;;;;;;;5484826;26;20268;-76
2024/04/19 07:01:16;;;;;;;96.82;91.18;;;;;;;;;;5484831;26;20237;-74
2024/04/19 07:03:45;;;;;;;93.37;88.50;;;;;;;;;;5521954;25;20240;-76
2024/04/19 07:06:13;;;;;;;94.63;89.53;;;;;;;;;;5521812;26;20517;-75
2024/04/19 07:08:45;;;;;;;90.27;85.40;;;;;;;;;;5521482;26;20437;-76
2024/04/19 07:11:15;;;;;;;94.77;89.27;;;;;;;;;;5522216;25;20466;-75
2024/04/19 07:13:46;;;;;;;94.70;89.47;;;;;;;;;;5522288;26;20477;-75
2024/04/19 07:16:15;;;;;;;102.07;96.07;;;;;;;;;;5521371;25;20756;-74
2024/04/19 07:18:43;;;;;;;96.97;91.80;;;;;;;;;;5521765;26;20425;-75
2024/04/19 07:21:12;;;;;;;95.97;90.35;;;;;;;;;;5522390;25;20484;-74
2024/04/19 07:23:41;;;;;;;96.57;91.13;;;;;;;;;;5522113;26;20270;-74
2024/04/19 07:26:12;;;;;;;91.07;86.13;;;;;;;;;;5521401;26;20465;-76
2024/04/19 07:28:41;;;;;;;99.53;93.63;;;;;;;;;;5484710;26;20228;-74
2024/04/19 07:31:09;;;;;;;100.97;94.87;;;;;;;;;;5490054;26;20277;-80
2024/04/19 07:33:39;;;;;;;107.50;101.18;;;;;;;;;;5521867;26;20445;-74
2024/04/19 07:36:10;;;;;;;100.47;94.90;;;;;;;;;;5522678;25;20267;-74
2024/04/19 07:38:39;;;;;;;97.40;91.30;;;;;;;;;;5519834;25;20476;-75
2024/04/19 07:41:08;;;;;;;97.83;92.23;;;;;;;;;;5521173;25;20476;-77
2024/04/19 07:43:40;;;;;;;94.13;89.03;;;;;;;;;;5521564;26;20437;-75
2024/04/19 07:46:09;;;;;;;102.27;95.80;;;;;;;;;;5520650;25;20977;-77
2024/04/19 07:48:37;;;;;;;100.90;94.80;;;;;;;;;;5484277;25;20487;-76
2024/04/19 07:51:07;;;;;;;95.23;89.93;;;;;;;;;;5492032;25;20465;-76
2024/04/19 07:53:35;;;;;;;98.40;92.80;;;;;;;;;;5519440;26;20455;-75
2024/04/19 07:56:04;;;;;;;96.87;91.17;;;;;;;;;;5521434;25;20333;-77
2024/04/19 07:58:33;;;;;;;92.73;87.53;;;;;;;;;;5494978;26;20546;-75
2024/04/19 08:01:04;;;;;;;89.27;84.30;;;;;;;;;;5517238;25;20472;-76
2024/04/19 08:03:30;;;;;;;101.37;95.47;;;;;;;;;;5511696;25;21150;-75
2024/04/19 08:05:58;;;;;;;106.77;100.67;;;;;;;;;;5513257;26;21291;-75
2024/04/19 08:08:27;;;;;;;102.20;95.93;;;;;;;;;;5508383;25;20803;-80
2024/04/19 08:10:56;;;;;;;93.97;88.77;;;;;;;;;;5501310;26;20270;-79
2024/04/19 08:13:24;;;;;;;92.90;87.60;;;;;;;;;;5519998;25;20489;-77
2024/04/19 08:15:53;;;;;;;91.47;86.27;;;;;;;;;;5512383;25;20436;-81
2024/04/19 08:18:25;;;;;;;95.60;90.00;;;;;;;;;;5493350;25;20509;-81
2024/04/19 08:20:53;;;;;;;101.23;94.90;;;;;;;;;;5504380;25;20449;-76
2024/04/19 08:23:25;;;;;;;102.53;95.13;;;;;;;;;;5483705;26;20477;-76
2024/04/19 08:25:54;;;;;;;97.07;90.77;;;;;;;;;;5483490;26;20478;-75
2024/04/19 08:28:25;;;;;;;97.07;90.97;;;;;;;;;;5483283;26;20469;-75
2024/04/19 08:30:54;;;;;;;103.63;96.70;;;;;;;;;;5483873;26;20791;-76
2024/04/19 08:33:25;;;;;;;95.20;89.07;;;;;;;;;;5483216;26;20459;-75
2024/04/19 08:35:57;;;;;;;94.50;88.70;;;;;;;;;;5484013;26;21046;-75
2024/04/19 08:38:26;;;;;;;84.20;78.93;;;;;;;;;;5483252;26;20462;-76
2024/04/19 08:40:57;;;;;;;91.03;85.50;;;;;;;;;;5489894;25;20490;-76
2024/04/19 08:43:26;;;;;;;95.43;89.57;;;;;;;;;;5520570;26;21220;-75
2024/04/19 08:45:56;;;;;;;88.87;83.30;;;;;;;;;;5502627;26;20514;-76
2024/04/19 08:48:29;;;;;;;89.27;83.60;;;;;;;;;;5483212;26;20892;-76
2024/04/19 08:51:00;;;;;;;87.33;81.70;;;;;;;;;;5486520;26;20598;-76
2024/04/19 08:53:29;;;;;;;93.60;87.90;;;;;;;;;;5521211;26;20473;-76
2024/04/19 08:55:58;;;;;;;89.80;84.30;;;;;;;;;;5516386;25;20871;-76
2024/04/19 08:58:26;;;;;;;87.73;82.00;;;;;;;;;;5523114;26;20461;-80
2024/04/19 09:00:55;;;;;;;86.83;81.73;;;;;;;;;;5519923;25;20446;-75
2024/04/19 09:03:23;;;;;;;93.90;88.27;;;;;;;;;;5512872;26;20447;-72
2024/04/19 09:05:55;;;;;;;90.07;84.77;;;;;;;;;;5523146;25;20454;-75
2024/04/19 09:08:23;;;;;;;94.37;88.80;;;;;;;;;;5506040;25;20801;-76
2024/04/19 09:10:53;;;;;;;93.97;88.17;;;;;;;;;;5498523;26;20503;-74
2024/04/19 09:13:21;;;;;;;92.37;86.97;;;;;;;;;;5519592;25;20970;-78
2024/04/19 09:15:50;;;;;;;95.13;89.20;;;;;;;;;;5518290;26;20503;-74
2024/04/19 09:18:19;;;;;;;94.30;88.80;;;;;;;;;;5503083;25;20797;-74
2024/04/19 09:20:48;;;;;;;91.97;86.43;;;;;;;;;;5504294;26;21442;-74
2024/04/19 09:23:19;;;;;;;97.47;91.80;;;;;;;;;;5510967;26;20499;-74
2024/04/19 09:25:56;;;;;;;92.00;86.83;;;;;;;;;;5518101;25;20509;-75
2024/04/19 09:28:25;;;;;;;94.90;89.37;;;;;;;;;;5512109;26;20526;-75
2024/04/19 09:30:55;;;;;;;93.00;87.27;;;;;;;;;;5511922;26;20777;-74
2024/04/19 09:33:26;;;;;;;97.70;92.10;;;;;;;;;;5517793;25;20470;-76
2024/04/19 09:35:56;;;;;;;93.27;87.97;;;;;;;;;;5519144;25;20477;-75
2024/04/19 09:38:27;;;;;;;90.00;84.80;;;;;;;;;;5522404;26;20457;-74
2024/04/19 09:40:56;;;;;;;87.63;82.53;;;;;;;;;;5522356;25;20512;-73
2024/04/19 09:43:26;;;;;;;92.60;87.37;;;;;;;;;;5486575;25;21184;-74
2024/04/19 09:45:57;;;;;;;86.83;82.30;;;;;;;;;;5521178;26;20514;-74
2024/04/19 09:48:30;;;;;;;90.13;85.03;;;;;;;;;;5520606;25;21148;-75
2024/04/19 09:51:00;;;;;;;89.90;84.60;;;;;;;;;;5521599;25;20481;-74
2024/04/19 09:53:34;;;;;;;84.00;79.20;;;;;;;;;;5523077;25;20969;-74
2024/04/19 09:56:08;;;;;;;85.83;80.93;;;;;;;;;;5518723;25;20559;-74
2024/04/19 09:58:36;;;;;;;77.20;72.90;;;;;;;;;;5519716;25;20526;-74
2024/04/19 10:01:06;;;;;;;75.47;71.07;;;;;;;;;;5518402;25;20470;-74
2024/04/19 10:03:35;;;;;;;76.60;72.27;;;;;;;;;;5494333;25;20525;-75
2024/04/19 10:06:05;;;;;;;78.20;74.00;;;;;;;;;;5491677;26;20498;-74
2024/04/19 10:08:37;;;;;;;73.03;69.23;;;;;;;;;;5485262;26;20467;-75
2024/04/19 10:11:07;;;;;;;76.63;72.53;;;;;;;;;;5497429;26;20447;-74
2024/04/19 10:13:36;;;;;;;71.23;67.43;;;;;;;;;;5520474;26;20484;-74
2024/04/19 10:16:05;;;;;;;73.87;69.67;;;;;;;;;;5516942;26;21114;-75
2024/04/19 10:18:37;;;;;;;69.90;66.00;;;;;;;;;;5512890;26;20990;-75
2024/04/19 10:21:05;;;;;;;65.60;62.17;;;;;;;;;;5484593;26;20456;-74
2024/04/19 10:23:39;;;;;;;64.83;61.20;;;;;;;;;;5502840;26;20498;-74
2024/04/19 10:26:08;;;;;;;66.83;63.07;;;;;;;;;;5518150;25;20458;-73
2024/04/19 10:28:37;;;;;;;66.37;62.93;;;;;;;;;;5485397;26;20464;-75
2024/04/19 10:31:08;;;;;;;69.03;65.33;;;;;;;;;;5486054;26;20437;-75
2024/04/19 10:33:36;;;;;;;68.53;65.03;;;;;;;;;;5486926;26;20784;-74
2024/04/19 10:36:05;;;;;;;64.60;61.10;;;;;;;;;;5486123;26;20435;-76
2024/04/19 10:38:35;;;;;;;59.03;55.97;;;;;;;;;;5512483;26;20457;-79
2024/04/19 10:41:06;;;;;;;52.50;49.80;;;;;;;;;;5526491;25;20514;-82
2024/04/19 10:43:44;;;;;;;53.07;50.20;;;;;;;;;;5526301;25;20466;-75
2024/04/19 10:46:14;;;;;;;51.87;49.17;;;;;;;;;;5524758;25;20777;-79
2024/04/19 10:48:44;;;;;;;50.27;47.47;;;;;;;;;;5524054;25;20433;-76
2024/04/19 10:51:13;;;;;;;51.70;48.87;;;;;;;;;;5524070;25;20472;-80
2024/04/19 10:53:42;;;;;;;41.50;39.50;;;;;;;;;;5524788;25;20462;-78
2024/04/19 10:56:13;;;;;;;35.00;33.37;;;;;;;;;;5525745;25;21146;-81
2024/04/19 10:58:42;;;;;;;31.37;29.47;;;;;;;;;;5524099;25;20524;-78
2024/04/19 11:01:11;;;;;;;30.57;28.50;;;;;;;;;;5526267;25;20586;-77
2024/04/19 11:03:39;;;;;;;27.73;26.13;;;;;;;;;;5526066;25;20861;-80
2024/04/19 11:06:09;;;;;;;24.43;23.03;;;;;;;;;;5524495;25;21109;-80
2024/04/19 11:08:38;;;;;;;23.00;21.83;;;;;;;;;;5523698;25;20419;-81
2024/04/19 11:11:06;;;;;;;20.83;19.33;;;;;;;;;;5525065;25;20422;-77
2024/04/19 11:13:39;;;;;;;21.67;20.20;;;;;;;;;;5522728;25;20510;-77
2024/04/19 11:16:09;;;;;;;20.67;19.30;;;;;;;;;;5522232;25;21518;-76
2024/04/19 11:18:37;;;;;;;20.03;19.03;;;;;;;;;;5521817;25;20443;-76
2024/04/19 11:21:06;;;;;;;19.03;18.13;;;;;;;;;;5523455;25;20483;-88
2024/04/19 11:23:36;;;;;;;18.93;17.93;;;;;;;;;;5525363;25;20479;-80
2024/04/19 11:26:07;;;;;;;19.40;18.10;;;;;;;;;;5524936;25;20955;-80
2024/04/19 11:28:38;;;;;;;18.33;17.27;;;;;;;;;;5525781;25;20453;-81
2024/04/19 11:31:11;;;;;;;18.37;17.37;;;;;;;;;;5525344;25;20466;-78
2024/04/19 11:33:40;;;;;;;17.40;16.50;;;;;;;;;;5524534;25;20458;-78
2024/04/19 11:36:11;;;;;;;18.07;16.97;;;;;;;;;;5525130;25;20454;-83
2024/04/19 11:38:41;;;;;;;18.20;17.17;;;;;;;;;;5523087;25;20524;-78
2024/04/19 11:41:26;;;;;;;19.57;17.87;;;;;;;;;;5522461;25;20550;-78
2024/04/19 11:44:02;;;;;;;18.67;17.30;;;;;;;;;;5522077;25;20555;-76
2024/04/19 11:46:31;;;;;;;18.37;17.23;;;;;;;;;;5522270;25;20437;-80
2024/04/19 11:49:03;;;;;;;18.37;17.13;;;;;;;;;;5518247;25;20508;-80
2024/04/19 11:51:31;;;;;;;18.73;17.73;;;;;;;;;;5487532;26;20473;-79
2024/04/19 11:54:00;;;;;;;18.40;17.40;;;;;;;;;;5497773;26;20462;-78
2024/04/19 11:56:29;;;;;;;18.93;17.83;;;;;;;;;;5523304;26;20471;-76
2024/04/19 11:59:04;;;;;;;18.20;17.10;;;;;;;;;;5524062;26;20467;-81
2024/04/19 12:01:33;;;;;;;17.90;17.10;;;;;;;;;;5522432;25;20473;-77
2024/04/19 12:04:07;;;;;;;19.43;18.10;;;;;;;;;;5523596;25;20451;-79
2024/04/19 12:06:36;;;;;;;18.40;17.30;;;;;;;;;;5523045;25;20602;-80
2024/04/19 12:09:05;;;;;;;18.80;17.60;;;;;;;;;;5523767;26;21022;-79
2024/04/19 12:11:35;;;;;;;19.20;17.90;;;;;;;;;;5523431;25;20471;-77
2024/04/19 12:14:07;;;;;;;18.77;17.57;;;;;;;;;;5503325;26;20432;-78
2024/04/19 12:16:38;;;;;;;28.47;18.63;;;;;;;;;;5488632;26;20436;-80
2024/04/19 12:19:07;;;;;;;19.10;18.10;;;;;;;;;;5498579;26;20474;-86
2024/04/19 12:21:35;;;;;;;19.00;18.00;;;;;;;;;;5525042;25;20462;-80
2024/04/19 12:24:04;;;;;;;19.87;18.67;;;;;;;;;;5524809;26;20463;-82
2024/04/19 12:26:33;;;;;;;21.23;19.70;;;;;;;;;;5528853;26;20430;-80
2024/04/19 12:29:01;;;;;;;25.43;23.70;;;;;;;;;;5525704;25;20489;-76
2024/04/19 12:31:35;;;;;;;29.87;27.87;;;;;;;;;;5524838;25;20494;-74
2024/04/19 12:34:04;;;;;;;39.00;36.60;;;;;;;;;;5524446;26;20552;-74
2024/04/19 12:36:33;;;;;;;37.97;35.93;;;;;;;;;;5524816;25;20458;-74
2024/04/19 12:39:02;;;;;;;47.33;43.90;;;;;;;;;;5523926;25;20513;-74
2024/04/19 12:41:31;;;;;;;40.77;38.50;;;;;;;;;;5524527;26;20578;-76
2024/04/19 12:44:03;;;;;;;46.17;43.80;;;;;;;;;;5526355;26;20610;-80
2024/04/19 12:46:34;;;;;;;52.30;49.40;;;;;;;;;;5530267;25;20512;-81
2024/04/19 12:49:06;;;;;;;58.40;55.20;;;;;;;;;;5528928;26;20459;-81
2024/04/19 12:51:36;;;;;;;58.67;55.37;;;;;;;;;;5524055;25;20463;-75
2024/04/19 12:54:05;;;;;;;59.90;56.80;;;;;;;;;;5524141;25;20462;-75
2024/04/19 12:56:34;;;;;;;59.80;56.60;;;;;;;;;;5503982;26;20452;-78
2024/04/19 12:59:03;;;;;;;59.60;56.60;;;;;;;;;;5510963;26;20486;-75
2024/04/19 13:01:34;;;;;;;58.73;55.73;;;;;;;;;;5522890;25;20486;-75
2024/04/19 13:04:04;;;;;;;53.10;49.70;;;;;;;;;;5523045;26;20434;-76
2024/04/19 13:06:34;;;;;;;53.97;51.37;;;;;;;;;;5523013;26;20499;-75
2024/04/19 13:09:03;;;;;;;51.03;48.30;;;;;;;;;;5522886;26;20430;-76
2024/04/19 13:11:31;;;;;;;50.07;47.67;;;;;;;;;;5523610;26;20470;-75
2024/04/19 13:14:00;;;;;;;53.20;50.50;;;;;;;;;;5523891;26;20505;-75
2024/04/19 13:16:29;;;;;;;48.03;45.63;;;;;;;;;;5523767;26;20454;-75
2024/04/19 13:19:01;;;;;;;46.77;44.37;;;;;;;;;;5523264;26;20576;-75
2024/04/19 13:21:29;;;;;;;40.80;38.80;;;;;;;;;;5524384;26;20565;-75
2024/04/19 13:23:58;;;;;;;40.17;38.17;;;;;;;;;;5523774;25;20438;-75
2024/04/19 13:26:27;;;;;;;41.30;39.30;;;;;;;;;;5523681;26;20433;-76
2024/04/19 13:28:56;;;;;;;43.27;41.07;;;;;;;;;;5523228;26;20474;-75
2024/04/19 13:31:25;;;;;;;44.10;42.00;;;;;;;;;;5523913;26;20478;-75
2024/04/19 13:33:54;;;;;;;44.17;41.87;;;;;;;;;;5524019;26;20581;-76
2024/04/19 13:36:25;;;;;;;45.00;42.03;;;;;;;;;;5521803;25;20499;-75
2024/04/19 13:38:54;;;;;;;48.93;45.27;;;;;;;;;;5522925;26;20495;-74
2024/04/19 13:41:22;;;;;;;43.73;40.40;;;;;;;;;;5523349;25;20503;-76
2024/04/19 13:43:51;;;;;;;31.87;28.50;;;;;;;;;;5523643;26;20495;-75
2024/04/19 13:46:20;;;;;;;29.77;27.83;;;;;;;;;;5522979;26;20463;-75
2024/04/19 13:48:50;;;;;;;29.17;26.93;;;;;;;;;;5522899;26;20450;-75
2024/04/19 13:51:19;;;;;;;34.20;31.67;;;;;;;;;;5523380;25;20447;-74
2024/04/19 13:53:50;;;;;;;33.93;31.93;;;;;;;;;;5523377;25;21012;-75
2024/04/19 13:56:20;;;;;;;34.40;32.30;;;;;;;;;;5523600;26;20490;-74
2024/04/19 13:58:49;;;;;;;32.50;30.33;;;;;;;;;;5522515;26;20510;-75
2024/04/19 14:01:17;;;;;;;32.57;30.57;;;;;;;;;;5523209;26;20493;-75
2024/04/19 14:03:46;;;;;;;30.67;28.77;;;;;;;;;;5523659;26;20808;-74
2024/04/19 14:06:14;;;;;;;30.97;29.07;;;;;;;;;;5523354;26;20470;-75
2024/04/19 14:08:44;;;;;;;31.87;29.93;;;;;;;;;;5523019;26;20504;-75
2024/04/19 14:11:15;;;;;;;30.60;28.80;;;;;;;;;;5523148;26;20438;-74
2024/04/19 14:13:44;;;;;;;32.63;30.60;;;;;;;;;;5523083;26;20992;-76
2024/04/19 14:16:10;;;;;;;29.97;28.10;;;;;;;;;;5523335;25;20465;-76
2024/04/19 14:18:38;;;;;;;29.20;27.47;;;;;;;;;;5522577;25;20984;-74
2024/04/19 14:21:07;;;;;;;28.03;26.43;;;;;;;;;;5523232;26;20515;-75
2024/04/19 14:23:33;;;;;;;29.80;27.90;;;;;;;;;;5522715;26;20466;-75
2024/04/19 14:26:02;;;;;;;30.97;28.90;;;;;;;;;;5512974;25;20994;-80
2024/04/19 14:28:34;;;;;;;28.90;27.10;;;;;;;;;;5517590;25;20489;-73
2024/04/19 14:31:03;;;;;;;31.37;29.47;;;;;;;;;;5522376;25;20484;-73
2024/04/19 14:33:33;;;;;;;28.20;26.43;;;;;;;;;;5513622;25;20503;-72